createdAt,value
2019-05-30T00:00:17.849Z,13.13
2019-05-30T00:01:15.976Z,13.14
2019-05-30T00:02:16.027Z,13.17
2019-05-30T00:03:15.978Z,13.14
2019-05-30T00:04:15.947Z,13.16
2019-05-30T00:05:15.953Z,13.19
2019-05-30T00:06:15.952Z,13.21
2019-05-30T00:07:15.931Z,13.17
2019-05-30T00:08:15.930Z,13.24
2019-05-30T00:09:15.927Z,13.23
2019-05-30T00:10:15.940Z,13.20
2019-05-30T00:11:15.904Z,13.17
2019-05-30T00:12:15.908Z,13.14
2019-05-30T00:13:15.899Z,13.19
2019-05-30T00:14:15.892Z,13.26
2019-05-30T00:15:15.889Z,13.21
2019-05-30T00:16:15.884Z,13.24
2019-05-30T00:17:15.871Z,13.23
2019-05-30T00:18:15.874Z,13.23
2019-05-30T00:19:15.855Z,13.21
2019-05-30T00:20:15.860Z,13.24
2019-05-30T00:21:15.849Z,13.23
2019-05-30T00:22:15.845Z,13.26
2019-05-30T00:23:15.847Z,13.30
2019-05-30T00:24:15.823Z,13.29
2019-05-30T00:25:15.822Z,13.30
2019-05-30T00:26:15.833Z,13.39
2019-05-30T00:27:15.809Z,13.36
2019-05-30T00:28:15.805Z,13.39
2019-05-30T00:29:15.791Z,13.38
2019-05-30T00:30:24.435Z,13.32
2019-05-30T00:31:15.776Z,13.46
2019-05-30T00:32:15.785Z,13.45
2019-05-30T00:33:15.766Z,13.49
2019-05-30T00:34:15.774Z,13.57
2019-05-30T00:35:15.763Z,13.58
2019-05-30T00:36:15.759Z,13.49
2019-05-30T00:37:15.745Z,13.53
2019-05-30T00:38:15.735Z,13.53
2019-05-30T00:39:15.743Z,13.57
2019-05-30T00:40:15.725Z,13.65
2019-05-30T00:41:15.712Z,13.61
2019-05-30T00:42:15.720Z,13.78
2019-05-30T00:43:15.715Z,13.67
2019-05-30T00:44:15.711Z,13.64
2019-05-30T00:45:20.891Z,13.76
2019-05-30T00:46:15.697Z,13.68
2019-05-30T00:47:15.680Z,13.80
2019-05-30T00:48:15.676Z,13.78
2019-05-30T00:49:15.675Z,13.78
2019-05-30T00:50:15.663Z,13.80
2019-05-30T00:51:15.656Z,13.76
2019-05-30T00:52:15.651Z,13.88
2019-05-30T00:53:15.647Z,13.88
2019-05-30T00:54:15.641Z,13.83
2019-05-30T00:55:15.646Z,13.80
2019-05-30T00:56:15.626Z,13.90
2019-05-30T00:57:15.626Z,13.94
2019-05-30T00:58:15.606Z,13.97
2019-05-30T00:59:15.611Z,13.96
2019-05-30T01:00:15.607Z,13.91
2019-05-30T01:01:15.602Z,13.98
2019-05-30T01:02:15.598Z,13.91
2019-05-30T01:03:15.589Z,13.96
2019-05-30T01:04:15.591Z,14.00
2019-05-30T01:05:15.577Z,14.00
2019-05-30T01:06:15.573Z,13.98
2019-05-30T01:07:15.563Z,14.05
2019-05-30T01:08:15.564Z,14.11
2019-05-30T01:09:15.550Z,14.08
2019-05-30T01:10:15.554Z,14.05
2019-05-30T01:11:15.538Z,14.04
2019-05-30T01:12:15.533Z,14.13
2019-05-30T01:13:15.527Z,14.13
2019-05-30T01:14:15.534Z,14.12
2019-05-30T01:15:15.511Z,14.12
2019-05-30T01:16:15.508Z,14.16
2019-05-30T01:17:15.511Z,14.09
2019-05-30T01:18:15.507Z,14.09
2019-05-30T01:19:15.494Z,14.26
2019-05-30T01:20:15.485Z,14.30
2019-05-30T01:21:15.477Z,14.22
2019-05-30T01:22:15.493Z,14.27
2019-05-30T01:23:15.477Z,14.33
2019-05-30T01:24:15.460Z,14.34
2019-05-30T01:25:15.451Z,14.28
2019-05-30T01:26:15.454Z,14.28
2019-05-30T01:27:15.448Z,14.28
2019-05-30T01:28:15.434Z,14.31
2019-05-30T01:29:15.428Z,14.31
2019-05-30T01:30:15.431Z,14.33
2019-05-30T01:31:15.420Z,14.36
2019-05-30T01:32:15.412Z,14.38
2019-05-30T01:33:15.436Z,14.34
2019-05-30T01:34:15.403Z,14.31
2019-05-30T01:35:15.393Z,14.26
2019-05-30T01:36:15.391Z,14.31
2019-05-30T01:37:15.402Z,14.33
2019-05-30T01:38:15.387Z,14.23
2019-05-30T01:39:15.367Z,14.19
2019-05-30T01:40:15.385Z,14.26
2019-05-30T01:41:17.533Z,14.22
2019-05-30T01:42:15.358Z,14.21
2019-05-30T01:43:15.363Z,14.09
2019-05-30T01:44:15.345Z,14.18
2019-05-30T01:45:15.339Z,14.13
2019-05-30T01:46:15.336Z,14.13
2019-05-30T01:47:15.324Z,14.15
2019-05-30T01:48:15.316Z,14.13
2019-05-30T01:49:15.313Z,14.16
2019-05-30T01:50:15.307Z,14.12
2019-05-30T01:51:15.327Z,14.08
2019-05-30T01:52:15.290Z,14.05
2019-05-30T01:53:15.291Z,14.03
2019-05-30T01:54:15.276Z,14.05
2019-05-30T01:55:15.285Z,13.97
2019-05-30T01:56:15.274Z,13.94
2019-05-30T01:57:15.270Z,13.96
2019-05-30T01:58:15.277Z,13.98
2019-05-30T01:59:15.258Z,13.94
2019-05-30T02:00:20.716Z,14.11
2019-05-30T02:01:24.282Z,14.08
2019-05-30T02:02:15.229Z,14.08
2019-05-30T02:03:15.232Z,13.98
2019-05-30T02:04:15.232Z,14.08
2019-05-30T02:05:15.222Z,14.11
2019-05-30T02:06:15.243Z,14.18
2019-05-30T02:07:15.214Z,14.21
2019-05-30T02:08:15.203Z,14.27
2019-05-30T02:09:15.189Z,14.26
2019-05-30T02:10:15.195Z,14.21
2019-05-30T02:11:15.179Z,14.31
2019-05-30T02:12:15.187Z,14.31
2019-05-30T02:13:15.172Z,14.38
2019-05-30T02:14:15.183Z,14.33
2019-05-30T02:15:15.167Z,14.33
2019-05-30T02:16:15.156Z,14.30
2019-05-30T02:17:15.140Z,14.36
2019-05-30T02:18:15.142Z,14.41
2019-05-30T02:19:15.155Z,14.41
2019-05-30T02:20:15.125Z,14.33
2019-05-30T02:21:15.117Z,14.48
2019-05-30T02:22:15.126Z,14.48
2019-05-30T02:23:15.113Z,14.53
2019-05-30T02:24:15.111Z,14.51
2019-05-30T02:25:15.103Z,14.45
2019-05-30T02:26:15.099Z,14.55
2019-05-30T02:27:15.100Z,14.56
2019-05-30T02:28:15.079Z,14.53
2019-05-30T02:29:15.081Z,14.55
2019-05-30T02:30:15.265Z,14.58
2019-05-30T02:31:15.095Z,14.52
2019-05-30T02:32:15.069Z,14.59
2019-05-30T02:33:15.062Z,14.61
2019-05-30T02:34:15.045Z,14.59
2019-05-30T02:35:15.071Z,14.67
2019-05-30T02:36:15.044Z,14.52
2019-05-30T02:37:15.033Z,14.53
2019-05-30T02:38:15.035Z,14.59
2019-05-30T02:39:15.025Z,14.53
2019-05-30T02:40:15.492Z,14.67
2019-05-30T02:41:15.018Z,14.66
2019-05-30T02:42:15.015Z,14.70
2019-05-30T02:43:15.012Z,14.66
2019-05-30T02:44:14.999Z,14.66
2019-05-30T02:45:14.991Z,14.69
2019-05-30T02:46:14.995Z,14.69
2019-05-30T02:47:14.997Z,14.77
2019-05-30T02:48:14.970Z,14.74
2019-05-30T02:49:14.977Z,14.82
2019-05-30T02:50:14.978Z,14.78
2019-05-30T02:51:14.972Z,14.70
2019-05-30T02:52:14.968Z,14.70
2019-05-30T02:53:14.962Z,14.69
2019-05-30T02:54:14.943Z,14.77
2019-05-30T02:55:14.938Z,14.73
2019-05-30T02:56:14.933Z,14.74
2019-05-30T02:57:14.949Z,14.82
2019-05-30T02:58:14.921Z,14.77
2019-05-30T02:59:14.922Z,14.85
2019-05-30T03:00:17.651Z,14.83
2019-05-30T03:01:14.955Z,14.85
2019-05-30T03:02:17.267Z,14.86
2019-05-30T03:03:15.047Z,14.90
2019-05-30T03:04:14.890Z,14.82
2019-05-30T03:05:15.398Z,14.86
2019-05-30T03:06:14.889Z,14.89
2019-05-30T03:07:14.887Z,14.93
2019-05-30T03:08:14.903Z,14.90
2019-05-30T03:09:14.860Z,14.96
2019-05-30T03:10:15.481Z,14.95
2019-05-30T03:11:15.663Z,14.97
2019-05-30T03:12:14.857Z,14.96
2019-05-30T03:13:14.857Z,15.03
2019-05-30T03:14:19.064Z,15.05
2019-05-30T03:15:15.721Z,14.99
2019-05-30T03:16:14.830Z,15.01
2019-05-30T03:17:14.906Z,14.97
2019-05-30T03:18:15.306Z,14.97
2019-05-30T03:19:14.806Z,14.97
2019-05-30T03:20:22.602Z,14.97
2019-05-30T03:21:15.542Z,14.95
2019-05-30T03:22:14.798Z,15.01
2019-05-30T03:23:15.160Z,15.01
2019-05-30T03:24:14.785Z,15.01
2019-05-30T03:25:16.204Z,15.04
2019-05-30T03:26:16.085Z,14.99
2019-05-30T03:27:14.791Z,14.95
2019-05-30T03:28:14.779Z,14.97
2019-05-30T03:29:14.770Z,14.95
2019-05-30T03:30:25.188Z,14.95
2019-05-30T03:31:26.734Z,15.07
2019-05-30T03:32:59.520Z,15.05
2019-05-30T03:33:32.968Z,15.08
2019-05-30T03:34:26.338Z,15.07
2019-05-30T03:35:26.876Z,15.07
2019-05-30T03:36:27.613Z,15.07
2019-05-30T03:37:22.582Z,15.01
2019-05-30T03:38:15.573Z,15.07
2019-05-30T03:39:15.454Z,14.95
2019-05-30T03:40:14.699Z,14.97
2019-05-30T03:41:14.701Z,14.99
2019-05-30T03:42:15.953Z,15.04
2019-05-30T03:43:15.939Z,14.93
2019-05-30T03:44:15.674Z,14.99
2019-05-30T03:45:16.612Z,15.07
2019-05-30T03:46:15.085Z,15.07
2019-05-30T03:47:15.588Z,14.96
2019-05-30T03:48:16.274Z,15.03
2019-05-30T03:49:14.977Z,15.03
2019-05-30T03:50:17.439Z,15.03
2019-05-30T03:51:15.118Z,14.99
2019-05-30T03:52:17.046Z,15.08
2019-05-30T03:53:16.238Z,15.08
2019-05-30T03:54:16.094Z,15.05
2019-05-30T03:55:16.522Z,15.10
2019-05-30T03:56:16.012Z,15.11
2019-05-30T03:57:15.651Z,15.08
2019-05-30T03:58:16.427Z,15.11
2019-05-30T03:59:14.862Z,15.11
2019-05-30T04:00:16.121Z,15.05
2019-05-30T04:01:14.956Z,15.17
2019-05-30T04:02:15.780Z,15.03
2019-05-30T04:03:15.613Z,15.15
2019-05-30T04:04:16.604Z,15.19
2019-05-30T04:05:16.039Z,15.08
2019-05-30T04:06:16.482Z,15.12
2019-05-30T04:07:15.892Z,15.07
2019-05-30T04:08:16.147Z,15.17
2019-05-30T04:09:21.413Z,15.12
2019-05-30T04:10:15.787Z,15.12
2019-05-30T04:11:16.581Z,15.11
2019-05-30T04:12:16.516Z,15.17
2019-05-30T04:13:16.590Z,15.15
2019-05-30T04:14:15.733Z,15.17
2019-05-30T04:15:16.631Z,15.25
2019-05-30T04:16:15.875Z,15.27
2019-05-30T04:17:16.045Z,15.25
2019-05-30T04:18:16.318Z,15.25
2019-05-30T04:19:15.542Z,15.25
2019-05-30T04:20:17.822Z,15.32
2019-05-30T04:21:16.679Z,15.29
2019-05-30T04:22:15.498Z,15.26
2019-05-30T04:23:14.965Z,15.35
2019-05-30T04:24:16.091Z,15.32
2019-05-30T04:25:14.480Z,15.29
2019-05-30T04:26:15.933Z,15.41
2019-05-30T04:27:16.109Z,15.41
2019-05-30T04:28:16.093Z,15.30
2019-05-30T04:29:16.275Z,15.32
2019-05-30T04:30:16.180Z,15.33
2019-05-30T04:31:14.617Z,15.33
2019-05-30T04:32:14.500Z,15.35
2019-05-30T04:33:26.444Z,15.41
2019-05-30T04:34:14.869Z,15.48
2019-05-30T04:35:14.718Z,15.44
2019-05-30T04:36:14.612Z,15.48
2019-05-30T04:37:14.909Z,15.43
2019-05-30T04:38:14.740Z,15.45
2019-05-30T04:39:15.140Z,15.45
2019-05-30T04:40:15.439Z,15.44
2019-05-30T04:41:15.953Z,15.44
2019-05-30T04:42:16.238Z,15.44
2019-05-30T04:43:15.513Z,15.47
2019-05-30T04:44:16.070Z,15.51
2019-05-30T04:45:15.981Z,15.51
2019-05-30T04:46:16.450Z,15.54
2019-05-30T04:47:15.984Z,15.60
2019-05-30T04:48:15.886Z,15.65
2019-05-30T04:49:14.956Z,15.59
2019-05-30T04:50:14.812Z,15.52
2019-05-30T04:51:14.949Z,15.54
2019-05-30T04:52:19.859Z,15.58
2019-05-30T04:53:16.194Z,15.56
2019-05-30T04:54:15.129Z,15.50
2019-05-30T04:55:16.031Z,15.60
2019-05-30T04:56:14.712Z,15.56
2019-05-30T04:57:14.912Z,15.65
2019-05-30T04:58:15.427Z,15.68
2019-05-30T04:59:15.253Z,15.60
2019-05-30T05:00:15.219Z,15.63
2019-05-30T05:01:15.426Z,15.52
2019-05-30T05:02:16.381Z,15.54
2019-05-30T05:03:15.491Z,15.62
2019-05-30T05:04:15.477Z,15.62
2019-05-30T05:05:19.986Z,15.65
2019-05-30T05:06:15.687Z,15.62
2019-05-30T05:07:15.566Z,15.63
2019-05-30T05:08:15.718Z,15.62
2019-05-30T05:09:15.847Z,15.65
2019-05-30T05:10:14.255Z,15.68
2019-05-30T05:11:17.253Z,15.58
2019-05-30T05:12:14.258Z,15.62
2019-05-30T05:13:14.241Z,15.62
2019-05-30T05:14:14.372Z,15.56
2019-05-30T05:15:14.408Z,15.59
2019-05-30T05:16:25.918Z,15.70
2019-05-30T05:17:14.683Z,15.62
2019-05-30T05:18:14.950Z,15.63
2019-05-30T05:19:14.912Z,15.72
2019-05-30T05:20:15.240Z,15.77
2019-05-30T05:21:14.704Z,15.63
2019-05-30T05:22:14.826Z,15.65
2019-05-30T05:23:15.079Z,15.63
2019-05-30T05:24:15.328Z,15.72
2019-05-30T05:25:15.321Z,15.68
2019-05-30T05:26:15.375Z,15.80
2019-05-30T05:27:15.446Z,15.84
2019-05-30T05:28:14.187Z,15.88
2019-05-30T05:29:14.181Z,15.93
2019-05-30T05:30:14.174Z,15.84
2019-05-30T05:31:14.484Z,15.84
2019-05-30T05:32:14.174Z,15.93
2019-05-30T05:33:14.540Z,16.00
2019-05-30T05:34:14.456Z,15.99
2019-05-30T05:35:14.791Z,15.90
2019-05-30T05:36:14.847Z,15.99
2019-05-30T05:37:14.910Z,16.00
2019-05-30T05:38:14.140Z,15.96
2019-05-30T05:39:14.136Z,15.96
2019-05-30T05:40:14.150Z,15.95
2019-05-30T05:41:14.119Z,15.99
2019-05-30T05:42:14.118Z,15.99
2019-05-30T05:43:14.121Z,16.02
2019-05-30T05:44:14.104Z,15.99
2019-05-30T05:45:14.127Z,16.03
2019-05-30T05:46:14.099Z,16.06
2019-05-30T05:47:14.106Z,16.08
2019-05-30T05:48:14.104Z,16.10
2019-05-30T05:49:14.088Z,16.09
2019-05-30T05:50:14.087Z,16.13
2019-05-30T05:51:14.090Z,16.16
2019-05-30T05:52:14.083Z,16.16
2019-05-30T05:53:14.088Z,16.13
2019-05-30T05:54:14.082Z,16.13
2019-05-30T05:55:14.068Z,16.17
2019-05-30T05:56:14.060Z,16.14
2019-05-30T05:57:14.058Z,16.21
2019-05-30T05:58:14.052Z,16.24
2019-05-30T05:59:14.069Z,16.25
2019-05-30T06:00:14.049Z,16.17
2019-05-30T06:01:14.042Z,16.22
2019-05-30T06:02:14.185Z,16.16
2019-05-30T06:03:14.033Z,16.29
2019-05-30T06:04:14.044Z,16.26
2019-05-30T06:05:14.034Z,16.32
2019-05-30T06:06:14.039Z,16.28
2019-05-30T06:07:14.033Z,16.33
2019-05-30T06:08:14.017Z,16.36
2019-05-30T06:09:14.014Z,16.32
2019-05-30T06:10:14.006Z,16.33
2019-05-30T06:11:14.002Z,16.33
2019-05-30T06:12:14.002Z,16.28
2019-05-30T06:13:13.987Z,16.34
2019-05-30T06:14:13.990Z,16.34
2019-05-30T06:15:14.009Z,16.39
2019-05-30T06:16:13.991Z,16.37
2019-05-30T06:17:13.982Z,16.36
2019-05-30T06:18:13.979Z,16.40
2019-05-30T06:19:13.975Z,16.47
2019-05-30T06:20:13.968Z,16.43
2019-05-30T06:21:13.965Z,16.42
2019-05-30T06:22:13.970Z,16.49
2019-05-30T06:23:13.955Z,16.55
2019-05-30T06:24:13.968Z,16.58
2019-05-30T06:25:13.955Z,16.55
2019-05-30T06:26:13.948Z,16.62
2019-05-30T06:27:13.940Z,16.61
2019-05-30T06:28:13.939Z,16.67
2019-05-30T06:29:13.935Z,16.77
2019-05-30T06:30:13.937Z,16.76
2019-05-30T06:31:13.927Z,16.74
2019-05-30T06:32:13.931Z,16.73
2019-05-30T06:33:13.937Z,16.79
2019-05-30T06:34:28.280Z,16.79
2019-05-30T06:35:13.910Z,16.84
2019-05-30T06:36:13.905Z,16.88
2019-05-30T06:37:13.897Z,16.90
2019-05-30T06:38:13.900Z,16.87
2019-05-30T06:39:13.900Z,16.84
2019-05-30T06:40:13.899Z,16.90
2019-05-30T06:41:13.894Z,16.91
2019-05-30T06:42:13.893Z,16.90
2019-05-30T06:43:13.877Z,16.95
2019-05-30T06:44:13.901Z,16.99
2019-05-30T06:45:13.884Z,17.01
2019-05-30T06:46:13.875Z,17.10
2019-05-30T06:47:13.874Z,17.01
2019-05-30T06:48:13.869Z,17.13
2019-05-30T06:49:15.044Z,17.12
2019-05-30T06:50:13.973Z,17.01
2019-05-30T06:51:14.684Z,17.09
2019-05-30T06:52:13.859Z,16.98
2019-05-30T06:53:13.853Z,17.10
2019-05-30T06:54:13.851Z,17.09
2019-05-30T06:55:13.852Z,17.06
2019-05-30T06:56:13.840Z,17.10
2019-05-30T06:57:13.849Z,17.20
2019-05-30T06:58:13.834Z,17.20
2019-05-30T06:59:13.838Z,17.28
2019-05-30T07:00:13.827Z,17.31
2019-05-30T07:01:13.835Z,17.20
2019-05-30T07:02:13.843Z,17.25
2019-05-30T07:03:13.876Z,17.28
2019-05-30T07:04:14.295Z,17.27
2019-05-30T07:05:14.444Z,17.31
2019-05-30T07:06:14.296Z,17.30
2019-05-30T07:07:13.848Z,17.30
2019-05-30T07:08:13.819Z,17.39
2019-05-30T07:09:13.818Z,17.41
2019-05-30T07:10:13.810Z,17.28
2019-05-30T07:11:13.798Z,17.31
2019-05-30T07:12:13.789Z,17.41
2019-05-30T07:13:13.789Z,17.37
2019-05-30T07:14:13.807Z,17.41
2019-05-30T07:15:13.779Z,17.39
2019-05-30T07:16:13.791Z,17.39
2019-05-30T07:17:13.780Z,17.41
2019-05-30T07:18:13.780Z,17.49
2019-05-30T07:19:13.769Z,17.49
2019-05-30T07:20:13.799Z,17.45
2019-05-30T07:21:13.781Z,17.49
2019-05-30T07:22:13.770Z,17.54
2019-05-30T07:23:13.805Z,17.47
2019-05-30T07:24:14.634Z,17.50
2019-05-30T07:25:19.880Z,17.43
2019-05-30T07:26:23.816Z,17.52
2019-05-30T07:27:17.714Z,17.54
2019-05-30T07:28:17.745Z,17.65
2019-05-30T07:29:13.797Z,17.56
2019-05-30T07:30:13.757Z,17.65
2019-05-30T07:31:13.743Z,17.65
2019-05-30T07:32:19.976Z,17.65
2019-05-30T07:33:17.521Z,17.63
2019-05-30T07:34:13.733Z,17.65
2019-05-30T07:35:28.021Z,17.76
2019-05-30T07:36:19.822Z,17.73
2019-05-30T07:37:13.731Z,17.84
2019-05-30T07:38:13.742Z,17.88
2019-05-30T07:39:13.724Z,17.96
2019-05-30T07:40:13.720Z,18.05
2019-05-30T07:41:13.728Z,17.99
2019-05-30T07:42:13.706Z,18.06
2019-05-30T07:43:13.717Z,18.21
2019-05-30T07:44:20.433Z,18.18
2019-05-30T07:45:13.727Z,18.31
2019-05-30T07:46:18.511Z,18.17
2019-05-30T07:47:13.700Z,18.27
2019-05-30T07:48:13.729Z,18.33
2019-05-30T07:49:19.879Z,18.33
2019-05-30T07:50:13.699Z,18.42
2019-05-30T07:51:13.720Z,18.43
2019-05-30T07:52:13.693Z,18.56
2019-05-30T07:53:13.697Z,18.56
2019-05-30T07:54:13.706Z,18.67
2019-05-30T07:55:13.703Z,18.68
2019-05-30T07:56:13.685Z,18.83
2019-05-30T07:57:13.719Z,18.96
2019-05-30T07:58:13.689Z,19.04
2019-05-30T07:59:13.687Z,19.07
2019-05-30T08:00:13.681Z,19.04
2019-05-30T08:01:21.497Z,19.01
2019-05-30T08:02:19.880Z,19.05
2019-05-30T08:03:13.676Z,19.07
2019-05-30T08:04:14.623Z,19.04
2019-05-30T08:05:24.337Z,19.00
2019-05-30T08:06:39.201Z,19.05
2019-05-30T08:07:22.648Z,19.13
2019-05-30T08:08:22.820Z,19.05
2019-05-30T08:09:19.021Z,19.17
2019-05-30T08:10:13.670Z,19.08
2019-05-30T08:11:13.675Z,19.15
2019-05-30T08:12:13.660Z,19.22
2019-05-30T08:13:13.669Z,19.17
2019-05-30T08:14:13.689Z,19.16
2019-05-30T08:15:13.682Z,19.01
2019-05-30T08:16:13.673Z,19.04
2019-05-30T08:17:13.658Z,18.89
2019-05-30T08:18:13.652Z,18.88
2019-05-30T08:19:13.657Z,18.93
2019-05-30T08:20:13.658Z,18.85
2019-05-30T08:21:13.652Z,18.94
2019-05-30T08:22:13.668Z,18.91
2019-05-30T08:23:13.655Z,18.93
2019-05-30T08:24:13.648Z,18.93
2019-05-30T08:25:13.652Z,18.96
2019-05-30T08:26:13.656Z,19.05
2019-05-30T08:27:13.645Z,19.01
2019-05-30T08:28:13.655Z,19.08
2019-05-30T08:29:14.630Z,19.08
2019-05-30T08:30:13.664Z,19.19
2019-05-30T08:31:15.434Z,19.22
2019-05-30T08:32:13.645Z,19.26
2019-05-30T08:33:13.645Z,19.32
2019-05-30T08:34:13.644Z,19.41
2019-05-30T08:35:13.645Z,19.39
2019-05-30T08:36:13.645Z,19.45
2019-05-30T08:37:13.641Z,19.44
2019-05-30T08:38:13.651Z,19.50
2019-05-30T08:39:13.671Z,19.54
2019-05-30T08:40:13.638Z,19.60
2019-05-30T08:41:13.643Z,19.63
2019-05-30T08:42:13.643Z,19.70
2019-05-30T08:43:13.640Z,19.74
2019-05-30T08:44:13.647Z,19.71
2019-05-30T08:45:13.632Z,19.70
2019-05-30T08:46:13.637Z,19.81
2019-05-30T08:47:13.636Z,19.89
2019-05-30T08:48:13.629Z,19.81
2019-05-30T08:49:13.652Z,19.94
2019-05-30T08:50:13.645Z,19.94
2019-05-30T08:51:13.651Z,19.94
2019-05-30T08:52:13.643Z,19.99
2019-05-30T08:53:13.635Z,20.00
2019-05-30T08:54:14.139Z,20.02
2019-05-30T08:55:13.632Z,20.04
2019-05-30T08:56:13.636Z,20.05
2019-05-30T08:57:13.624Z,19.99
2019-05-30T08:58:13.629Z,20.02
2019-05-30T08:59:13.636Z,20.09
2019-05-30T09:00:13.636Z,20.08
2019-05-30T09:01:13.632Z,20.09
2019-05-30T09:02:13.626Z,20.19
2019-05-30T09:03:13.631Z,20.25
2019-05-30T09:04:13.628Z,20.29
2019-05-30T09:05:13.637Z,20.41
2019-05-30T09:06:13.642Z,20.42
2019-05-30T09:07:13.624Z,20.53
2019-05-30T09:08:13.626Z,20.63
2019-05-30T09:09:13.633Z,20.70
2019-05-30T09:10:13.627Z,20.74
2019-05-30T09:11:13.634Z,20.85
2019-05-30T09:12:13.633Z,20.80
2019-05-30T09:13:14.532Z,20.82
2019-05-30T09:14:13.795Z,20.92
2019-05-30T09:15:13.632Z,20.95
2019-05-30T09:16:13.794Z,21.05
2019-05-30T09:17:13.650Z,21.08
2019-05-30T09:18:13.631Z,21.07
2019-05-30T09:19:13.687Z,21.14
2019-05-30T09:20:13.803Z,21.13
2019-05-30T09:21:13.639Z,21.26
2019-05-30T09:22:13.646Z,21.32
2019-05-30T09:23:13.641Z,21.37
2019-05-30T09:24:13.641Z,21.35
2019-05-30T09:25:13.642Z,21.34
2019-05-30T09:26:13.648Z,21.30
2019-05-30T09:27:13.647Z,21.38
2019-05-30T09:28:13.647Z,21.41
2019-05-30T09:29:13.765Z,21.41
2019-05-30T09:30:13.652Z,21.38
2019-05-30T09:31:13.660Z,21.40
2019-05-30T09:32:13.649Z,21.30
2019-05-30T09:33:13.681Z,21.26
2019-05-30T09:34:13.655Z,21.13
2019-05-30T09:35:13.664Z,21.04
2019-05-30T09:36:14.076Z,21.04
2019-05-30T09:37:13.657Z,21.03
2019-05-30T09:38:13.810Z,20.85
2019-05-30T09:39:13.864Z,20.89
2019-05-30T09:40:13.668Z,20.82
2019-05-30T09:41:13.673Z,20.80
2019-05-30T09:42:14.241Z,20.77
2019-05-30T09:43:13.671Z,20.64
2019-05-30T09:44:13.686Z,20.65
2019-05-30T09:45:15.654Z,20.58
2019-05-30T09:46:13.683Z,20.61
2019-05-30T09:47:13.679Z,20.52
2019-05-30T09:48:13.674Z,20.50
2019-05-30T09:49:13.667Z,20.55
2019-05-30T09:50:13.663Z,20.39
2019-05-30T09:51:13.670Z,20.30
2019-05-30T09:52:13.669Z,20.29
2019-05-30T09:53:13.674Z,20.30
2019-05-30T09:54:13.661Z,20.23
2019-05-30T09:55:13.674Z,20.11
2019-05-30T09:56:13.675Z,19.96
2019-05-30T09:57:13.688Z,19.97
2019-05-30T09:58:19.106Z,19.84
2019-05-30T09:59:13.678Z,19.89
2019-05-30T10:00:14.406Z,19.96
2019-05-30T10:01:13.966Z,19.94
2019-05-30T10:02:13.674Z,19.96
2019-05-30T10:03:13.680Z,19.94
2019-05-30T10:04:13.673Z,20.00
2019-05-30T10:05:13.674Z,20.11
2019-05-30T10:06:28.528Z,20.04
2019-05-30T10:07:13.675Z,19.97
2019-05-30T10:08:13.670Z,20.02
2019-05-30T10:09:13.672Z,20.00
2019-05-30T10:10:13.670Z,20.04
2019-05-30T10:11:16.097Z,20.08
2019-05-30T10:12:13.668Z,20.07
2019-05-30T10:13:13.669Z,20.25
2019-05-30T10:14:13.665Z,20.18
2019-05-30T10:15:13.675Z,20.22
2019-05-30T10:16:13.671Z,20.18
2019-05-30T10:17:13.691Z,20.18
2019-05-30T10:18:13.668Z,20.14
2019-05-30T10:19:13.686Z,20.14
2019-05-30T10:20:13.671Z,20.22
2019-05-30T10:21:13.663Z,20.23
2019-05-30T10:22:13.666Z,20.22
2019-05-30T10:23:13.666Z,20.26
2019-05-30T10:24:13.668Z,20.25
2019-05-30T10:25:13.660Z,20.23
2019-05-30T10:26:13.659Z,20.32
2019-05-30T10:27:13.667Z,20.27
2019-05-30T10:28:13.667Z,20.19
2019-05-30T10:29:13.666Z,20.18
2019-05-30T10:30:13.669Z,20.08
2019-05-30T10:31:13.660Z,20.09
2019-05-30T10:32:13.656Z,20.11
2019-05-30T10:33:13.665Z,20.19
2019-05-30T10:34:13.662Z,20.19
2019-05-30T10:35:13.659Z,20.14
2019-05-30T10:36:14.814Z,20.18
2019-05-30T10:37:13.655Z,20.22
2019-05-30T10:38:13.655Z,20.27
2019-05-30T10:39:13.656Z,20.19
2019-05-30T10:40:13.654Z,20.19
2019-05-30T10:41:13.658Z,20.27
2019-05-30T10:42:13.650Z,20.29
2019-05-30T10:43:13.654Z,20.33
2019-05-30T10:44:13.658Z,20.27
2019-05-30T10:45:13.652Z,20.19
2019-05-30T10:46:13.665Z,20.17
2019-05-30T10:47:13.656Z,20.08
2019-05-30T10:48:13.655Z,20.18
2019-05-30T10:49:13.655Z,20.11
2019-05-30T10:50:13.650Z,20.09
2019-05-30T10:51:13.649Z,20.09
2019-05-30T10:52:13.647Z,20.04
2019-05-30T10:53:13.647Z,20.00
2019-05-30T10:54:13.646Z,20.00
2019-05-30T10:55:13.648Z,19.94
2019-05-30T10:56:13.646Z,19.99
2019-05-30T10:57:13.644Z,20.00
2019-05-30T10:58:13.643Z,19.99
2019-05-30T10:59:13.645Z,19.99
2019-05-30T11:00:13.645Z,19.96
2019-05-30T11:01:13.649Z,19.82
2019-05-30T11:02:13.643Z,19.75
2019-05-30T11:03:13.638Z,19.74
2019-05-30T11:04:13.637Z,19.77
2019-05-30T11:05:13.638Z,19.79
2019-05-30T11:06:13.668Z,19.75
2019-05-30T11:07:13.637Z,19.75
2019-05-30T11:08:13.632Z,19.84
2019-05-30T11:09:13.637Z,19.79
2019-05-30T11:10:13.632Z,19.87
2019-05-30T11:11:14.491Z,19.89
2019-05-30T11:12:13.631Z,19.77
2019-05-30T11:13:13.658Z,19.92
2019-05-30T11:14:13.632Z,19.86
2019-05-30T11:15:14.495Z,19.92
2019-05-30T11:16:13.632Z,19.89
2019-05-30T11:17:13.626Z,19.86
2019-05-30T11:18:13.719Z,19.99
2019-05-30T11:19:13.625Z,19.92
2019-05-30T11:20:13.645Z,20.00
2019-05-30T11:21:13.624Z,20.05
2019-05-30T11:22:13.652Z,20.08
2019-05-30T11:23:13.628Z,20.18
2019-05-30T11:24:13.616Z,20.22
2019-05-30T11:25:13.620Z,20.26
2019-05-30T11:26:13.616Z,20.33
2019-05-30T11:27:13.616Z,20.32
2019-05-30T11:28:13.616Z,20.34
2019-05-30T11:29:13.615Z,20.39
2019-05-30T11:30:13.614Z,20.44
2019-05-30T11:31:16.549Z,20.44
2019-05-30T11:32:13.612Z,20.53
2019-05-30T11:33:13.625Z,20.52
2019-05-30T11:34:13.682Z,20.53
2019-05-30T11:35:14.441Z,20.67
2019-05-30T11:36:13.608Z,20.67
2019-05-30T11:37:18.700Z,20.68
2019-05-30T11:38:13.615Z,20.68
2019-05-30T11:39:16.381Z,20.70
2019-05-30T11:40:13.605Z,20.70
2019-05-30T11:41:13.607Z,20.70
2019-05-30T11:42:13.632Z,20.70
2019-05-30T11:43:15.386Z,20.74
2019-05-30T11:44:15.530Z,20.75
2019-05-30T11:45:14.297Z,20.82
2019-05-30T11:46:14.747Z,20.82
2019-05-30T11:47:13.605Z,20.83
2019-05-30T11:48:13.752Z,20.85
2019-05-30T11:49:14.464Z,20.89
2019-05-30T11:50:13.605Z,20.98
2019-05-30T11:51:13.847Z,20.98
2019-05-30T11:52:13.605Z,21.01
2019-05-30T11:53:13.607Z,21.03
2019-05-30T11:54:13.604Z,21.08
2019-05-30T11:55:13.640Z,21.04
2019-05-30T11:56:15.973Z,21.11
2019-05-30T11:57:13.603Z,21.00
2019-05-30T11:58:13.606Z,20.98
2019-05-30T11:59:14.888Z,21.00
2019-05-30T12:00:13.613Z,20.95
2019-05-30T12:01:15.351Z,20.88
2019-05-30T12:02:14.611Z,20.95
2019-05-30T12:03:13.811Z,20.85
2019-05-30T12:04:13.608Z,20.82
2019-05-30T12:05:14.720Z,20.85
2019-05-30T12:06:13.605Z,20.90
2019-05-30T12:07:13.612Z,20.89
2019-05-30T12:08:14.356Z,20.90
2019-05-30T12:09:14.663Z,20.98
2019-05-30T12:10:13.743Z,20.93
2019-05-30T12:11:13.619Z,20.86
2019-05-30T12:12:13.609Z,20.90
2019-05-30T12:13:13.613Z,20.90
2019-05-30T12:14:13.990Z,20.93
2019-05-30T12:15:13.613Z,21.00
2019-05-30T12:16:13.611Z,21.00
2019-05-30T12:17:13.605Z,20.92
2019-05-30T12:18:15.900Z,20.90
2019-05-30T12:19:13.611Z,20.92
2019-05-30T12:20:15.109Z,20.83
2019-05-30T12:21:13.601Z,20.85
2019-05-30T12:22:13.610Z,20.80
2019-05-30T12:23:13.607Z,20.74
2019-05-30T12:24:13.610Z,20.74
2019-05-30T12:25:13.608Z,20.71
2019-05-30T12:26:13.630Z,20.73
2019-05-30T12:27:13.613Z,20.63
2019-05-30T12:28:13.603Z,20.64
2019-05-30T12:29:13.606Z,20.65
2019-05-30T12:30:13.599Z,20.64
2019-05-30T12:31:13.597Z,20.63
2019-05-30T12:32:13.602Z,20.58
2019-05-30T12:33:13.608Z,20.53
2019-05-30T12:34:13.604Z,20.55
2019-05-30T12:35:14.427Z,20.61
2019-05-30T12:36:14.116Z,20.55
2019-05-30T12:37:15.199Z,20.61
2019-05-30T12:38:13.596Z,20.64
2019-05-30T12:39:13.612Z,20.65
2019-05-30T12:40:13.603Z,20.63
2019-05-30T12:41:13.599Z,20.67
2019-05-30T12:42:13.600Z,20.67
2019-05-30T12:43:14.099Z,20.68
2019-05-30T12:44:14.588Z,20.70
2019-05-30T12:45:13.606Z,20.73
2019-05-30T12:46:13.601Z,20.73
2019-05-30T12:47:13.596Z,20.83
2019-05-30T12:48:13.602Z,20.82
2019-05-30T12:49:13.590Z,20.85
2019-05-30T12:50:16.564Z,20.95
2019-05-30T12:51:13.598Z,20.92
2019-05-30T12:52:13.597Z,21.05